Time;durP1;ratioP1;P1;durP2;ratioP2;P2;SDS_P1;SDS_P2;PMS_P1;PMS_P2;Temp;Humidity;BMP_temperature;BMP_pressure;BME280_temperature;BME280_humidity;BME280_pressure;Samples;Min_cycle;Max_cycle;Signal;HPM_P1;HPM_P2
2022/08/01 00:00:24;;;;;;;13.73;7.85;;;18.80;99.90;;;;;;5071123;28;20475;-69
2022/08/01 00:02:50;;;;;;;10.30;7.65;;;18.60;99.90;;;;;;5071076;28;20485;-68
2022/08/01 00:05:16;;;;;;;15.23;8.05;;;18.40;99.90;;;;;;5069866;28;20103;-69
2022/08/01 00:07:42;;;;;;;12.13;7.97;;;18.60;99.90;;;;;;5070878;28;20119;-70
2022/08/01 00:10:11;;;;;;;14.07;8.55;;;18.00;99.90;;;;;;5074558;28;20048;-70
2022/08/01 00:12:37;;;;;;;14.32;7.97;;;18.80;99.90;;;;;;5075322;28;20041;-70
2022/08/01 00:15:05;;;;;;;13.38;8.57;;;18.70;99.90;;;;;;5075281;28;20095;-69
2022/08/01 00:17:31;;;;;;;12.95;8.38;;;19.00;99.90;;;;;;5075441;28;20062;-69
2022/08/01 00:19:56;;;;;;;15.93;9.10;;;18.90;99.90;;;;;;5074915;28;20531;-69
2022/08/01 00:22:22;;;;;;;15.10;8.73;;;18.50;99.90;;;;;;5074755;28;20043;-69
2022/08/01 00:24:48;;;;;;;19.05;9.80;;;18.40;99.90;;;;;;5073581;28;20052;-69
2022/08/01 00:27:13;;;;;;;16.48;9.85;;;18.20;99.90;;;;;;5075047;28;20045;-69
2022/08/01 00:29:39;;;;;;;15.65;9.20;;;18.40;99.90;;;;;;5074856;28;20551;-69
2022/08/01 00:32:05;;;;;;;13.13;8.82;;;18.80;99.90;;;;;;5074780;28;20033;-69
2022/08/01 00:34:31;;;;;;;20.10;10.60;;;18.70;99.90;;;;;;5073253;28;20071;-69
2022/08/01 00:36:56;;;;;;;18.17;9.38;;;18.10;99.90;;;;;;5072950;28;20051;-70
2022/08/01 00:39:22;;;;;;;20.75;10.10;;;18.40;99.90;;;;;;5074731;28;20491;-70
2022/08/01 00:41:47;;;;;;;17.13;9.60;;;18.40;99.90;;;;;;5073629;28;20538;-70
2022/08/01 00:44:13;;;;;;;15.82;9.55;;;18.70;99.90;;;;;;5074277;28;20125;-69
2022/08/01 00:46:39;;;;;;;17.30;10.63;;;18.20;99.90;;;;;;5074635;28;20135;-70
2022/08/01 00:49:05;;;;;;;16.55;10.55;;;;;;;;;;5074150;28;20404;-70
2022/08/01 00:51:31;;;;;;;14.32;9.95;;;18.00;99.90;;;;;;5074234;28;20098;-69
2022/08/01 00:53:56;;;;;;;14.60;9.80;;;18.40;99.90;;;;;;5072871;28;20052;-69
2022/08/01 00:56:26;;;;;;;16.13;10.88;;;18.40;99.90;;;;;;5073053;28;20043;-69
2022/08/01 00:58:52;;;;;;;18.85;11.07;;;18.50;99.90;;;;;;5072616;28;20056;-68
2022/08/01 01:01:20;;;;;;;18.60;11.73;;;18.20;99.90;;;;;;5059844;28;20429;-69
2022/08/01 01:03:46;;;;;;;18.02;10.68;;;18.00;99.90;;;;;;5053895;28;20076;-70
2022/08/01 01:06:40;;;;;;;22.23;12.45;;;18.20;99.90;;;;;;5053612;28;20041;-69
2022/08/01 01:09:20;;;;;;;19.05;11.40;;;18.70;99.90;;;;;;5054025;28;20071;-69
2022/08/01 01:12:08;;;;;;;19.73;12.70;;;18.50;99.90;;;;;;5052731;28;20052;-70
2022/08/01 01:14:44;;;;;;;21.52;12.85;;;18.40;99.90;;;;;;5053724;28;20041;-69
2022/08/01 01:17:14;;;;;;;24.13;13.18;;;17.80;99.90;;;;;;5053992;28;20037;-69
2022/08/01 01:19:49;;;;;;;24.98;13.50;;;18.40;99.90;;;;;;5053326;28;20071;-69
2022/08/01 01:22:24;;;;;;;22.88;13.30;;;18.20;99.90;;;;;;5053839;28;20125;-69
2022/08/01 01:25:18;;;;;;;21.75;12.48;;;18.60;99.90;;;;;;5053496;28;20494;-69
2022/08/01 01:28:06;;;;;;;22.25;13.38;;;18.50;99.90;;;;;;5053655;28;20051;-69
2022/08/01 01:30:33;;;;;;;21.73;12.15;;;18.20;99.90;;;;;;5053756;28;20044;-69
2022/08/01 01:33:05;;;;;;;23.05;11.98;;;17.90;99.90;;;;;;5053906;28;20045;-69
2022/08/01 01:35:35;;;;;;;19.83;11.93;;;18.20;99.90;;;;;;5052105;28;20437;-70
2022/08/01 01:38:21;;;;;;;23.23;12.63;;;18.50;99.90;;;;;;5053695;28;20130;-69
2022/08/01 01:40:50;;;;;;;19.02;11.50;;;18.60;99.90;;;;;;5053151;28;20588;-69
2022/08/01 01:43:18;;;;;;;21.42;11.65;;;18.20;99.90;;;;;;5053368;28;20442;-70
2022/08/01 01:45:46;;;;;;;21.15;12.07;;;17.80;99.90;;;;;;5053193;28;20112;-69
2022/08/01 01:48:18;;;;;;;22.00;12.68;;;18.10;99.90;;;;;;5053032;28;20492;-70
2022/08/01 01:50:46;;;;;;;20.75;12.02;;;18.50;99.90;;;;;;5053305;28;20520;-69
2022/08/01 01:53:14;;;;;;;21.90;12.45;;;18.00;99.90;;;;;;5053140;28;20044;-69
2022/08/01 01:55:43;;;;;;;22.73;12.38;;;18.20;99.90;;;;;;5051908;28;20052;-69
2022/08/01 01:58:13;;;;;;;19.10;11.90;;;18.10;99.90;;;;;;5052621;28;20174;-69
2022/08/01 02:00:44;;;;;;;20.42;11.90;;;18.20;99.90;;;;;;5052926;28;20076;-67
2022/08/01 02:03:11;;;;;;;19.92;10.57;;;18.00;99.90;;;;;;5052976;28;20048;-67
2022/08/01 02:05:39;;;;;;;21.58;11.25;;;18.00;99.90;;;;;;5052992;28;20594;-68
2022/08/01 02:08:06;;;;;;;18.55;11.10;;;18.50;99.90;;;;;;5052695;28;20049;-68
2022/08/01 02:10:34;;;;;;;19.73;10.68;;;18.50;99.90;;;;;;5052673;28;20041;-67
2022/08/01 02:13:03;;;;;;;19.80;11.40;;;18.00;99.90;;;;;;5052774;28;20033;-67
2022/08/01 02:15:31;;;;;;;18.35;10.48;;;18.30;99.90;;;;;;5051426;28;20055;-67
2022/08/01 02:17:59;;;;;;;18.27;10.93;;;18.10;99.90;;;;;;5052768;28;20044;-67
2022/08/01 02:20:27;;;;;;;17.83;10.27;;;18.30;99.90;;;;;;5052714;28;20045;-68
2022/08/01 02:23:00;;;;;;;18.67;10.40;;;18.10;99.90;;;;;;5052627;28;20084;-67
2022/08/01 02:25:36;;;;;;;26.67;12.82;;;18.00;99.90;;;;;;5051283;28;20102;-67
2022/08/01 02:28:10;;;;;;;19.63;11.02;;;18.30;99.90;;;;;;5052838;28;20099;-66
2022/08/01 02:30:38;;;;;;;19.05;10.55;;;18.40;99.90;;;;;;5052864;28;20033;-66
2022/08/01 02:33:18;;;;;;;16.08;10.18;;;18.40;99.90;;;;;;5051832;28;20033;-67
2022/08/01 02:35:48;;;;;;;14.40;9.82;;;17.70;99.90;;;;;;5052370;28;20029;-67
2022/08/01 02:38:18;;;;;;;14.52;8.57;;;18.30;99.90;;;;;;5052235;28;20044;-67
2022/08/01 02:40:46;;;;;;;12.65;8.02;;;18.40;99.90;;;;;;5052628;28;20044;-67
2022/08/01 02:43:15;;;;;;;11.52;7.60;;;17.80;99.90;;;;;;5052079;28;20045;-67
2022/08/01 02:45:45;;;;;;;10.40;6.70;;;18.00;99.90;;;;;;5052143;28;20048;-66
2022/08/01 02:48:13;;;;;;;11.15;6.88;;;17.60;99.90;;;;;;5051826;28;20091;-66
2022/08/01 02:50:42;;;;;;;11.07;6.25;;;17.60;99.90;;;;;;5052283;28;20037;-66
2022/08/01 02:53:11;;;;;;;12.35;6.70;;;18.10;99.90;;;;;;5052218;28;20033;-66
2022/08/01 02:55:39;;;;;;;10.15;6.85;;;18.10;99.90;;;;;;5052100;28;20480;-66
2022/08/01 02:58:08;;;;;;;10.52;6.85;;;18.00;99.90;;;;;;5051637;28;20075;-67
2022/08/01 03:00:34;;;;;;;12.15;7.28;;;17.40;99.90;;;;;;5051797;28;20477;-66
2022/08/01 03:03:01;;;;;;;12.20;7.20;;;17.90;99.90;;;;;;5052201;28;20052;-66
2022/08/01 03:05:27;;;;;;;10.57;7.25;;;18.10;99.90;;;;;;5051793;28;20076;-66
2022/08/01 03:07:56;;;;;;;11.55;7.43;;;18.00;99.90;;;;;;5051623;28;20060;-67
2022/08/01 03:10:23;;;;;;;12.57;7.22;;;17.80;99.90;;;;;;5050315;28;20049;-67
2022/08/01 03:12:50;;;;;;;12.20;6.90;;;17.80;99.90;;;;;;5051751;28;20112;-66
2022/08/01 03:15:17;;;;;;;11.82;6.88;;;17.90;99.90;;;;;;5051461;28;20043;-66
2022/08/01 03:17:45;;;;;;;11.40;7.07;;;14.90;99.90;;;;;;5051842;28;20116;-66
2022/08/01 03:20:16;;;;;;;10.27;6.90;;;17.90;99.90;;;;;;5051883;28;20041;-66
2022/08/01 03:22:44;;;;;;;10.10;6.88;;;17.80;99.90;;;;;;5051714;28;20072;-67
2022/08/01 03:25:13;;;;;;;13.02;6.55;;;17.50;99.90;;;;;;5051586;28;20044;-67
2022/08/01 03:27:41;;;;;;;12.02;6.75;;;17.70;99.90;;;;;;5051639;28;20045;-66
2022/08/01 03:30:08;;;;;;;10.82;6.20;;;17.70;99.90;;;;;;5051664;28;20048;-67
2022/08/01 03:32:34;;;;;;;11.25;6.38;;;17.50;99.90;;;;;;5051363;28;20041;-67
2022/08/01 03:34:59;;;;;;;13.18;6.53;;;18.30;99.90;;;;;;5051580;28;20148;-66
2022/08/01 03:37:38;;;;;;;10.23;6.25;;;17.40;99.90;;;;;;5051249;28;20148;-66
2022/08/01 03:40:09;;;;;;;9.63;6.05;;;17.80;99.90;;;;;;5051329;28;20103;-66
2022/08/01 03:42:44;;;;;;;14.05;6.40;;;17.50;99.90;;;;;;5051366;28;20045;-67
2022/08/01 03:45:15;;;;;;;17.23;7.10;;;17.90;99.90;;;;;;5051262;28;20049;-67
2022/08/01 03:47:43;;;;;;;9.20;6.00;;;18.30;99.90;;;;;;5051824;28;20045;-67
2022/08/01 03:50:13;;;;;;;13.70;6.40;;;17.80;99.90;;;;;;5049894;28;20051;-66
2022/08/01 03:52:41;;;;;;;14.15;5.68;;;17.80;99.90;;;;;;5051055;28;20056;-66
2022/08/01 03:55:07;;;;;;;9.30;5.40;;;17.70;99.90;;;;;;5051303;28;20392;-66
2022/08/01 03:57:34;;;;;;;13.45;5.03;;;17.90;99.90;;;;;;5051336;28;20040;-66
2022/08/01 04:00:00;;;;;;;10.82;4.85;;;17.50;99.90;;;;;;5050947;28;20064;-66
2022/08/01 04:02:27;;;;;;;9.80;4.75;;;17.70;99.90;;;;;;5051160;28;20051;-66
2022/08/01 04:04:54;;;;;;;7.43;4.15;;;17.70;99.90;;;;;;5049835;28;20151;-67
2022/08/01 04:07:28;;;;;;;11.68;4.32;;;17.40;99.90;;;;;;5050853;28;20052;-66
2022/08/01 04:09:54;;;;;;;11.98;3.90;;;18.00;99.90;;;;;;5051084;28;20048;-67
2022/08/01 04:12:20;;;;;;;7.80;3.50;;;17.70;99.90;;;;;;5051178;28;20454;-67
2022/08/01 04:14:46;;;;;;;7.25;3.60;;;17.60;99.90;;;;;;5051186;28;20037;-66
2022/08/01 04:17:12;;;;;;;8.88;2.92;;;18.00;99.90;;;;;;5050952;28;20033;-66
2022/08/01 04:19:38;;;;;;;8.20;2.92;;;;;;;;;;5051022;28;20047;-67
2022/08/01 04:22:05;;;;;;;6.35;2.60;;;17.60;99.90;;;;;;5051369;28;20049;-67
2022/08/01 04:24:33;;;;;;;7.43;2.53;;;17.40;99.90;;;;;;5051091;28;20041;-67
2022/08/01 04:27:01;;;;;;;6.60;2.70;;;17.80;99.90;;;;;;5051007;28;20082;-67
2022/08/01 04:29:29;;;;;;;4.43;2.67;;;17.80;99.90;;;;;;5051003;28;20046;-66
2022/08/01 04:31:56;;;;;;;10.13;2.88;;;17.60;99.90;;;;;;5051256;28;20080;-66
2022/08/01 04:34:25;;;;;;;7.53;2.63;;;17.80;99.90;;;;;;5050722;28;20041;-67
2022/08/01 04:36:55;;;;;;;9.95;2.88;;;18.10;99.90;;;;;;5050351;28;20041;-67
2022/08/01 04:39:27;;;;;;;11.15;2.90;;;17.60;99.90;;;;;;5050794;28;20091;-67
2022/08/01 04:41:56;;;;;;;7.32;2.50;;;17.70;99.90;;;;;;5051174;28;20048;-67
2022/08/01 04:44:23;;;;;;;9.60;2.88;;;17.30;99.90;;;;;;5050858;28;20503;-67
2022/08/01 04:46:54;;;;;;;9.07;2.90;;;17.50;99.90;;;;;;5050976;28;20041;-67
2022/08/01 04:49:21;;;;;;;8.85;2.70;;;17.50;99.90;;;;;;5050485;28;20040;-67
2022/08/01 04:51:57;;;;;;;9.38;2.53;;;17.90;99.90;;;;;;5050964;28;20048;-67
2022/08/01 04:54:27;;;;;;;8.85;2.50;;;17.80;99.90;;;;;;5050832;28;20033;-67
2022/08/01 04:56:58;;;;;;;9.45;3.03;;;17.60;99.90;;;;;;5054228;28;20114;-67
2022/08/01 04:59:39;;;;;;;7.22;2.60;;;17.60;99.90;;;;;;5053839;28;20072;-67
2022/08/01 05:02:11;;;;;;;8.32;2.50;;;18.10;99.90;;;;;;5054047;28;20053;-67
2022/08/01 05:04:38;;;;;;;7.60;2.72;;;17.60;99.90;;;;;;5054282;28;20087;-67
2022/08/01 05:07:04;;;;;;;6.60;2.70;;;17.40;99.90;;;;;;5054378;28;20048;-67
2022/08/01 05:09:30;;;;;;;7.55;2.50;;;17.70;99.90;;;;;;5053922;28;20124;-67
2022/08/01 05:11:58;;;;;;;6.68;2.70;;;;;;;;;;5053652;28;20041;-67
2022/08/01 05:14:25;;;;;;;7.25;2.80;;;17.90;99.90;;;;;;5054365;28;20051;-67
2022/08/01 05:16:51;;;;;;;8.75;2.92;;;18.00;99.90;;;;;;5052817;28;20033;-67
2022/08/01 05:19:17;;;;;;;9.90;3.13;;;17.50;99.90;;;;;;5053836;28;20093;-68
2022/08/01 05:21:44;;;;;;;7.95;2.90;;;17.80;99.90;;;;;;5053613;28;20045;-69
2022/08/01 05:24:09;;;;;;;10.73;3.28;;;17.60;99.90;;;;;;5052908;28;20040;-68
2022/08/01 05:26:36;;;;;;;15.88;3.30;;;17.60;99.90;;;;;;5053510;28;20040;-68
2022/08/01 05:29:02;;;;;;;12.15;3.05;;;17.40;99.90;;;;;;5052275;28;20405;-67
2022/08/01 05:31:28;;;;;;;11.00;3.42;;;17.80;99.90;;;;;;5053723;28;20044;-67
2022/08/01 05:33:54;;;;;;;10.55;3.28;;;18.00;99.90;;;;;;5053963;28;20033;-69
2022/08/01 05:36:19;;;;;;;10.57;3.50;;;17.40;99.90;;;;;;5035453;28;20036;-69
2022/08/01 05:38:45;;;;;;;10.48;3.42;;;17.70;99.90;;;;;;5053387;28;20037;-69
2022/08/01 05:41:11;;;;;;;7.88;3.20;;;17.90;99.90;;;;;;5053244;28;20140;-69
2022/08/01 05:43:36;;;;;;;8.15;3.10;;;17.70;99.90;;;;;;5053765;28;20549;-69
2022/08/01 05:46:03;;;;;;;11.07;3.33;;;;;;;;;;5053455;28;20052;-69
2022/08/01 05:48:28;;;;;;;10.60;3.40;;;17.80;99.90;;;;;;5053437;28;20048;-69
2022/08/01 05:50:54;;;;;;;9.27;3.30;;;17.30;99.90;;;;;;5053234;28;20485;-69
2022/08/01 05:53:20;;;;;;;9.77;3.60;;;17.60;99.90;;;;;;5053206;28;20036;-69
2022/08/01 05:55:46;;;;;;;14.82;4.03;;;17.50;99.90;;;;;;5053286;28;20033;-71
2022/08/01 05:58:12;;;;;;;12.70;3.88;;;17.90;99.90;;;;;;5051706;28;20565;-71
2022/08/01 06:00:38;;;;;;;11.20;3.67;;;18.10;99.90;;;;;;5053101;28;20676;-70
2022/08/01 06:03:03;;;;;;;13.10;3.92;;;17.80;99.90;;;;;;5052993;28;20051;-71
2022/08/01 06:05:29;;;;;;;13.55;3.65;;;17.60;99.90;;;;;;5053316;28;20120;-70
2022/08/01 06:07:55;;;;;;;12.60;3.45;;;17.90;99.90;;;;;;5051576;28;20124;-70
2022/08/01 06:10:20;;;;;;;12.32;3.60;;;18.10;99.90;;;;;;5052542;28;20041;-69
2022/08/01 06:12:46;;;;;;;16.15;3.47;;;18.30;99.90;;;;;;5053025;28;20056;-69
2022/08/01 06:15:12;;;;;;;11.10;4.50;;;18.30;99.90;;;;;;5051923;28;20466;-69
2022/08/01 06:17:38;;;;;;;13.65;3.90;;;18.00;99.90;;;;;;5051641;28;20531;-69
2022/08/01 06:20:06;;;;;;;13.43;3.45;;;18.10;99.90;;;;;;5052732;28;20040;-69
2022/08/01 06:22:31;;;;;;;20.83;3.78;;;17.70;99.90;;;;;;5052995;28;20093;-69
2022/08/01 06:24:57;;;;;;;10.85;2.97;;;18.50;99.90;;;;;;5051550;28;20044;-69
2022/08/01 06:27:24;;;;;;;10.25;2.92;;;19.40;99.90;;;;;;5052542;28;20043;-69
2022/08/01 06:29:53;;;;;;;13.55;2.95;;;21.10;99.90;;;;;;5052652;28;20112;-69
2022/08/01 06:32:19;;;;;;;8.65;2.88;;;;;;;;;;5052677;28;20044;-70
2022/08/01 06:34:45;;;;;;;12.32;2.90;;;23.50;99.90;;;;;;5052739;28;20048;-70
2022/08/01 06:37:12;;;;;;;12.23;2.90;;;23.90;99.90;;;;;;5052392;28;20404;-70
2022/08/01 06:39:38;;;;;;;14.98;3.10;;;24.40;99.90;;;;;;5052338;28;20052;-70
2022/08/01 06:42:04;;;;;;;11.70;2.85;;;24.40;99.90;;;;;;5052224;28;20112;-70
2022/08/01 06:44:29;;;;;;;14.77;3.15;;;23.70;99.90;;;;;;5052420;28;20091;-70
2022/08/01 06:46:58;;;;;;;14.48;3.22;;;23.50;99.90;;;;;;5051852;28;20496;-70
2022/08/01 06:49:24;;;;;;;17.65;3.67;;;23.00;99.90;;;;;;5049959;28;20064;-70
2022/08/01 06:51:50;;;;;;;16.55;3.53;;;22.70;99.90;;;;;;5051205;28;20033;-69
2022/08/01 06:54:16;;;;;;;13.40;3.30;;;22.30;99.90;;;;;;5050743;28;20053;-70
2022/08/01 06:56:42;;;;;;;17.98;3.60;;;22.20;99.90;;;;;;5051383;28;20041;-69
2022/08/01 06:59:07;;;;;;;12.13;3.13;;;22.50;99.90;;;;;;5050064;28;20064;-69
2022/08/01 07:01:33;;;;;;;18.52;3.42;;;22.50;99.90;;;;;;5049975;28;20040;-69
2022/08/01 07:03:59;;;;;;;18.92;3.35;;;22.10;99.90;;;;;;5049319;28;20481;-69
2022/08/01 07:06:25;;;;;;;17.23;3.45;;;22.60;99.90;;;;;;5051309;28;20064;-70
2022/08/01 07:08:54;;;;;;;14.55;2.97;;;22.60;99.90;;;;;;5050860;28;20124;-70
2022/08/01 07:11:21;;;;;;;18.13;3.33;;;22.30;99.90;;;;;;5050873;28;20122;-70
2022/08/01 07:13:47;;;;;;;17.10;3.55;;;22.40;99.90;;;;;;5050797;28;20046;-70
2022/08/01 07:16:15;;;;;;;18.88;4.05;;;23.00;99.90;;;;;;5050707;28;20048;-70
2022/08/01 07:18:41;;;;;;;15.40;3.10;;;23.70;99.90;;;;;;5050580;28;20037;-70
2022/08/01 07:21:07;;;;;;;17.88;3.72;;;23.30;99.90;;;;;;5050104;28;20056;-67
2022/08/01 07:23:36;;;;;;;17.80;3.80;;;23.20;99.90;;;;;;5050869;28;20473;-67
2022/08/01 07:26:03;;;;;;;14.32;3.00;;;22.20;99.90;;;;;;5050348;28;20091;-67
2022/08/01 07:28:29;;;;;;;19.27;4.05;;;21.70;99.90;;;;;;5053571;28;20087;-70
2022/08/01 07:30:54;;;;;;;17.50;3.50;;;21.30;99.90;;;;;;5052541;28;20056;-70
2022/08/01 07:33:22;;;;;;;18.23;3.78;;;;;;;;;;5050860;28;20484;-70
2022/08/01 07:35:47;;;;;;;13.13;3.42;;;20.90;99.90;;;;;;5051077;28;20059;-67
2022/08/01 07:38:14;;;;;;;19.85;3.85;;;20.80;99.90;;;;;;5049405;28;20441;-68
2022/08/01 07:40:40;;;;;;;20.83;4.03;;;20.70;99.90;;;;;;5050836;28;20114;-67
2022/08/01 07:43:06;;;;;;;20.67;3.65;;;20.60;99.90;;;;;;5049240;28;20048;-67
2022/08/01 07:45:32;;;;;;;21.25;3.85;;;20.10;99.90;;;;;;5059058;28;20045;-69
2022/08/01 07:48:05;;;;;;;17.80;3.80;;;20.00;99.90;;;;;;5058823;28;20510;-69
2022/08/01 07:50:31;;;;;;;17.48;3.88;;;19.90;99.90;;;;;;5055596;28;20212;-70
2022/08/01 07:52:57;;;;;;;20.35;3.50;;;19.80;99.90;;;;;;5049294;28;20439;-70
2022/08/01 07:55:23;;;;;;;23.65;3.80;;;19.80;99.90;;;;;;5050434;28;20045;-70
2022/08/01 07:57:49;;;;;;;21.98;3.80;;;19.60;99.90;;;;;;5049577;28;20476;-70
2022/08/01 08:00:15;;;;;;;24.98;4.35;;;19.70;99.90;;;;;;5049886;28;20063;-69
2022/08/01 08:02:41;;;;;;;18.63;3.95;;;19.80;99.90;;;;;;5050407;28;20153;-70
2022/08/01 08:05:07;;;;;;;20.70;4.07;;;19.30;99.90;;;;;;5050077;28;20120;-69
2022/08/01 08:07:33;;;;;;;18.10;3.85;;;19.40;99.90;;;;;;5050378;28;20057;-69
2022/08/01 08:09:59;;;;;;;16.75;4.18;;;19.10;99.90;;;;;;5050122;28;20045;-70
2022/08/01 08:12:24;;;;;;;17.23;3.72;;;19.20;99.90;;;;;;5050135;28;20114;-70
2022/08/01 08:14:50;;;;;;;20.23;3.95;;;19.40;99.90;;;;;;5050307;28;20086;-70
2022/08/01 08:17:16;;;;;;;20.83;3.50;;;18.80;99.90;;;;;;5049686;28;20045;-70
2022/08/01 08:19:42;;;;;;;23.52;3.72;;;19.60;99.90;;;;;;5053766;28;20029;-70
2022/08/01 08:22:08;;;;;;;17.08;3.80;;;19.10;99.90;;;;;;5061342;28;20072;-70
2022/08/01 08:24:35;;;;;;;16.90;4.00;;;19.90;99.90;;;;;;5050564;28;20032;-69
2022/08/01 08:27:02;;;;;;;14.40;3.72;;;19.60;99.90;;;;;;5049975;28;20536;-69
2022/08/01 08:29:31;;;;;;;20.75;4.00;;;19.30;99.90;;;;;;5048912;28;20481;-70
2022/08/01 08:31:57;;;;;;;15.02;3.47;;;19.80;99.90;;;;;;5053434;28;20440;-69
2022/08/01 08:34:25;;;;;;;18.85;4.07;;;19.70;99.90;;;;;;5054245;28;20109;-70
2022/08/01 08:36:51;;;;;;;17.63;3.70;;;19.80;99.90;;;;;;5053480;28;20436;-70
2022/08/01 08:39:17;;;;;;;16.15;3.60;;;19.40;99.90;;;;;;5053203;28;20099;-70
2022/08/01 08:41:43;;;;;;;15.90;3.92;;;19.70;99.90;;;;;;5053406;28;20074;-70
2022/08/01 08:44:09;;;;;;;21.00;4.05;;;19.90;99.90;;;;;;5053441;28;20048;-69
2022/08/01 08:46:41;;;;;;;16.10;3.70;;;20.10;99.90;;;;;;5053186;28;20044;-70
2022/08/01 08:49:08;;;;;;;16.63;3.72;;;20.00;99.90;;;;;;5053529;28;20071;-69
2022/08/01 08:51:37;;;;;;;20.38;3.75;;;20.10;99.90;;;;;;5053619;28;20056;-69
2022/08/01 08:54:05;;;;;;;18.92;3.67;;;21.00;99.90;;;;;;5051839;28;20044;-70
2022/08/01 08:56:34;;;;;;;16.95;3.20;;;20.30;99.90;;;;;;5053425;28;20041;-69
2022/08/01 08:59:01;;;;;;;19.65;3.45;;;20.30;99.90;;;;;;5053096;28;20061;-70
2022/08/01 09:01:26;;;;;;;;;;;20.20;99.90;;;;;;5054196;28;20053;-70
2022/08/01 09:03:53;;;;;;;19.80;4.25;;;20.30;99.90;;;;;;5051731;28;20481;-69
2022/08/01 09:06:19;;;;;;;16.35;3.83;;;20.10;99.90;;;;;;5053552;28;20051;-70
2022/08/01 09:08:46;;;;;;;17.25;3.58;;;20.30;99.90;;;;;;5053508;28;20053;-70
2022/08/01 09:11:11;;;;;;;15.73;4.03;;;20.50;99.90;;;;;;5053401;28;20044;-70
2022/08/01 09:13:37;;;;;;;18.67;4.25;;;20.20;99.90;;;;;;5053161;28;20045;-70
2022/08/01 09:16:05;;;;;;;16.45;4.53;;;21.60;99.90;;;;;;5052849;28;20040;-70
2022/08/01 09:18:40;;;;;;;20.08;4.28;;;20.60;99.90;;;;;;5052741;28;20179;-70
2022/08/01 09:21:06;;;;;;;15.52;3.30;;;21.30;99.90;;;;;;5052971;28;20501;-70
2022/08/01 09:23:39;;;;;;;20.92;3.60;;;20.60;99.90;;;;;;5053032;28;20048;-69
2022/08/01 09:26:17;;;;;;;14.88;3.13;;;21.00;99.90;;;;;;5052627;28;20489;-70
2022/08/01 09:28:43;;;;;;;16.95;3.45;;;21.70;99.90;;;;;;5052853;28;20128;-69
2022/08/01 09:31:17;;;;;;;13.57;3.17;;;21.50;99.90;;;;;;5051525;28;20055;-70
2022/08/01 09:33:57;;;;;;;15.95;3.30;;;21.70;99.90;;;;;;5053144;28;20056;-71
2022/08/01 09:36:44;;;;;;;14.77;3.53;;;21.90;99.90;;;;;;5052704;28;20116;-70
2022/08/01 09:39:14;;;;;;;17.63;3.78;;;22.00;99.90;;;;;;5052542;28;20099;-71
2022/08/01 09:41:41;;;;;;;12.57;3.13;;;22.10;99.90;;;;;;5052222;28;20105;-71
2022/08/01 09:44:06;;;;;;;16.50;3.60;;;21.80;99.90;;;;;;5056223;28;20053;-70
2022/08/01 09:46:32;;;;;;;18.90;3.72;;;21.60;99.90;;;;;;5072800;28;20051;-70
2022/08/01 09:49:04;;;;;;;16.85;3.63;;;21.30;99.90;;;;;;5056285;28;20048;-70
2022/08/01 09:51:30;;;;;;;12.90;3.13;;;20.90;99.90;;;;;;5053573;28;20403;-70
2022/08/01 09:53:56;;;;;;;13.25;3.42;;;21.10;99.90;;;;;;5053110;28;20048;-69
2022/08/01 09:56:22;;;;;;;20.63;3.63;;;21.10;99.90;;;;;;5053061;28;20048;-70
2022/08/01 09:58:57;;;;;;;21.17;3.95;;;20.90;99.90;;;;;;5053037;28;20045;-69
2022/08/01 10:01:23;;;;;;;20.38;3.50;;;20.80;99.90;;;;;;5052723;28;20048;-70
2022/08/01 10:04:16;;;;;;;12.77;3.20;;;21.40;99.90;;;;;;5052648;28;20048;-70
2022/08/01 10:06:49;;;;;;;19.70;3.92;;;21.70;99.90;;;;;;5050454;28;20052;-70
2022/08/01 10:09:26;;;;;;;14.85;3.28;;;21.40;99.90;;;;;;5052848;28;20492;-70
2022/08/01 10:11:52;;;;;;;13.07;3.00;;;21.40;99.90;;;;;;5052607;28;20041;-70
2022/08/01 10:14:19;;;;;;;13.30;3.05;;;21.50;99.90;;;;;;5052934;28;20116;-70
2022/08/01 10:16:47;;;;;;;13.13;2.90;;;21.70;99.90;;;;;;5052928;28;20082;-70
2022/08/01 10:19:13;;;;;;;10.35;3.05;;;21.70;99.90;;;;;;5052598;28;20036;-70
2022/08/01 10:21:40;;;;;;;13.15;3.05;;;21.60;99.90;;;;;;5052687;28;20041;-70
2022/08/01 10:24:08;;;;;;;12.50;3.22;;;21.70;99.90;;;;;;5052488;28;20541;-70
2022/08/01 10:26:35;;;;;;;14.13;2.90;;;21.60;99.90;;;;;;5052245;28;20040;-69
2022/08/01 10:29:02;;;;;;;12.57;2.90;;;21.70;99.90;;;;;;5051005;28;20485;-69
2022/08/01 10:31:32;;;;;;;12.73;2.75;;;22.00;99.90;;;;;;5052464;28;20491;-70
2022/08/01 10:33:59;;;;;;;12.07;2.95;;;22.00;99.90;;;;;;5052571;28;20144;-70
2022/08/01 10:36:25;;;;;;;17.17;2.90;;;22.50;99.90;;;;;;5052201;28;20033;-70
2022/08/01 10:38:55;;;;;;;12.38;2.70;;;22.90;99.90;;;;;;5052442;28;20561;-70
2022/08/01 10:41:21;;;;;;;15.77;2.95;;;22.40;99.90;;;;;;5051299;28;20048;-70
2022/08/01 10:43:47;;;;;;;12.18;2.70;;;22.60;99.90;;;;;;5052509;28;20049;-70
2022/08/01 10:46:13;;;;;;;11.07;2.72;;;23.10;99.90;;;;;;5052194;28;20124;-70
2022/08/01 10:48:41;;;;;;;12.48;2.80;;;24.10;99.90;;;;;;5052254;28;20091;-70
2022/08/01 10:51:08;;;;;;;13.07;2.90;;;23.00;99.90;;;;;;5052207;28;20043;-70
2022/08/01 10:53:33;;;;;;;10.63;2.72;;;23.10;99.90;;;;;;5051434;28;20043;-71
2022/08/01 10:56:01;;;;;;;14.43;2.90;;;23.10;99.90;;;;;;5051897;28;20120;-70
2022/08/01 10:58:37;;;;;;;12.75;2.88;;;23.20;99.90;;;;;;5051410;28;20572;-70
2022/08/01 11:01:23;;;;;;;9.73;2.72;;;23.10;99.90;;;;;;5052069;28;20090;-70
2022/08/01 11:04:01;;;;;;;14.20;3.00;;;23.10;99.90;;;;;;5052396;28;20037;-70
2022/08/01 11:06:33;;;;;;;12.65;2.63;;;23.00;99.90;;;;;;5051742;28;20091;-70
2022/08/01 11:09:02;;;;;;;11.18;2.45;;;23.00;99.90;;;;;;5051909;28;20051;-70
2022/08/01 11:11:28;;;;;;;13.65;2.83;;;23.30;99.90;;;;;;5051706;28;20044;-71
2022/08/01 11:14:01;;;;;;;11.90;2.58;;;23.20;99.90;;;;;;5051865;28;20037;-70
2022/08/01 11:16:29;;;;;;;11.02;2.55;;;23.40;99.90;;;;;;5051404;28;20427;-71
2022/08/01 11:18:54;;;;;;;15.80;2.95;;;23.60;99.90;;;;;;5051729;28;20130;-71
2022/08/01 11:21:23;;;;;;;9.32;2.42;;;23.60;99.90;;;;;;5051855;28;20477;-71
2022/08/01 11:23:53;;;;;;;11.23;2.83;;;23.40;99.90;;;;;;5051509;28;20484;-71
2022/08/01 11:26:20;;;;;;;17.42;2.70;;;22.30;99.90;;;;;;5051684;28;20083;-71
2022/08/01 11:29:13;;;;;;;9.63;2.75;;;23.60;99.90;;;;;;5051375;28;20519;-71
2022/08/01 11:31:39;;;;;;;9.23;2.55;;;23.60;98.20;;;;;;5051366;28;20112;-71
2022/08/01 11:34:06;;;;;;;8.93;2.60;;;23.50;99.90;;;;;;5051757;28;20064;-71
2022/08/01 11:36:32;;;;;;;10.15;2.17;;;23.30;99.90;;;;;;5049915;28;20433;-70
2022/08/01 11:38:57;;;;;;;7.50;2.30;;;23.40;99.90;;;;;;5051443;28;20055;-71
2022/08/01 11:41:29;;;;;;;9.77;2.53;;;23.30;99.60;;;;;;5050109;28;20124;-71
2022/08/01 11:44:05;;;;;;;8.48;2.45;;;23.20;98.90;;;;;;5051419;28;20098;-71
2022/08/01 11:46:47;;;;;;;11.20;2.35;;;23.50;99.90;;;;;;5051410;28;20396;-71
2022/08/01 11:49:22;;;;;;;8.80;2.47;;;23.40;99.90;;;;;;5051065;28;20049;-72
2022/08/01 11:51:56;;;;;;;12.38;2.58;;;23.70;99.90;;;;;;5051160;28;20041;-71
2022/08/01 11:54:29;;;;;;;9.23;2.50;;;23.60;99.90;;;;;;5051458;28;20106;-71
2022/08/01 11:56:56;;;;;;;10.35;2.67;;;23.60;99.90;;;;;;5051530;28;20168;-71
2022/08/01 11:59:22;;;;;;;9.25;2.55;;;23.60;98.70;;;;;;5051298;28;20393;-67
2022/08/01 12:01:48;;;;;;;6.97;2.10;;;23.70;98.30;;;;;;5051699;28;20131;-67
2022/08/01 12:04:14;;;;;;;11.93;2.22;;;23.80;97.90;;;;;;5051449;28;20130;-67
2022/08/01 12:06:40;;;;;;;6.20;2.17;;;24.00;98.40;;;;;;5055295;28;20033;-67
2022/08/01 12:09:16;;;;;;;12.63;2.40;;;24.20;97.20;;;;;;5055138;28;20033;-67
2022/08/01 12:11:42;;;;;;;11.50;2.40;;;24.30;96.00;;;;;;5055084;28;20061;-71
2022/08/01 12:14:08;;;;;;;8.23;1.88;;;24.20;95.00;;;;;;5055196;28;20068;-71
2022/08/01 12:16:33;;;;;;;10.73;2.00;;;24.10;95.50;;;;;;5055015;28;20554;-70
2022/08/01 12:18:59;;;;;;;10.65;2.20;;;24.10;93.80;;;;;;5054881;28;20397;-71
2022/08/01 12:21:25;;;;;;;7.30;2.10;;;24.20;94.70;;;;;;5055010;28;20033;-71
2022/08/01 12:24:01;;;;;;;9.40;2.30;;;24.20;94.50;;;;;;5055153;28;20036;-71
2022/08/01 12:26:42;;;;;;;8.45;2.38;;;24.40;93.70;;;;;;5054946;28;20063;-71
2022/08/01 12:29:08;;;;;;;7.82;2.45;;;24.40;89.30;;;;;;5054664;28;20044;-71
2022/08/01 12:31:34;;;;;;;9.60;2.30;;;24.30;92.60;;;;;;5054863;28;20473;-70
2022/08/01 12:34:27;;;;;;;10.23;2.10;;;24.30;92.40;;;;;;5054810;28;20060;-71
2022/08/01 12:36:57;;;;;;;6.70;2.10;;;24.20;94.50;;;;;;5047129;28;20049;-71
2022/08/01 12:39:29;;;;;;;7.68;2.25;;;24.00;95.90;;;;;;5054607;28;20427;-71
2022/08/01 12:41:55;;;;;;;7.18;2.30;;;24.00;93.60;;;;;;5053143;28;20055;-71
2022/08/01 12:44:21;;;;;;;5.95;2.17;;;24.00;93.20;;;;;;5054637;28;20404;-71
2022/08/01 12:46:47;;;;;;;10.10;2.38;;;23.90;93.20;;;;;;5054651;28;20194;-71